sensor_id;sensor_type;location;lat;lon;timestamp;pressure;altitude;pressure_sealevel;temperature;humidity
4273;BME280;63887;53.656;9.810;2022-10-31T00:00:06;101950.75;;;11.16;96.71
4273;BME280;63887;53.656;9.810;2022-10-31T00:02:33;101955.16;;;11.15;96.33
4273;BME280;63887;53.656;9.810;2022-10-31T00:04:59;101948.94;;;11.18;96.35
4273;BME280;63887;53.656;9.810;2022-10-31T00:07:27;101957.56;;;11.21;96.75
4273;BME280;63887;53.656;9.810;2022-10-31T00:09:54;101958.59;;;11.17;96.22
4273;BME280;63887;53.656;9.810;2022-10-31T00:12:20;101957.63;;;11.20;96.94
4273;BME280;63887;53.656;9.810;2022-10-31T00:14:46;101959.09;;;11.27;96.70
4273;BME280;63887;53.656;9.810;2022-10-31T00:17:13;101956.50;;;11.25;97.08
4273;BME280;63887;53.656;9.810;2022-10-31T00:19:39;101966.16;;;11.25;97.00
4273;BME280;63887;53.656;9.810;2022-10-31T00:22:06;101966.16;;;11.25;97.18
4273;BME280;63887;53.656;9.810;2022-10-31T00:24:33;101966.16;;;11.25;96.96
4273;BME280;63887;53.656;9.810;2022-10-31T00:27:00;101965.13;;;11.29;97.32
4273;BME280;63887;53.656;9.810;2022-10-31T00:29:26;101961.50;;;11.33;96.87
4273;BME280;63887;53.656;9.810;2022-10-31T00:31:53;101958.88;;;11.33;97.17
4273;BME280;63887;53.656;9.810;2022-10-31T00:34:19;101962.28;;;11.35;96.79
4273;BME280;63887;53.656;9.810;2022-10-31T00:36:45;101961.44;;;11.34;97.26
4273;BME280;63887;53.656;9.810;2022-10-31T00:39:12;101955.31;;;11.34;97.23
4273;BME280;63887;53.656;9.810;2022-10-31T00:41:40;101961.44;;;11.34;96.87
4273;BME280;63887;53.656;9.810;2022-10-31T00:44:07;101960.63;;;11.32;97.22
4273;BME280;63887;53.656;9.810;2022-10-31T00:46:33;101958.81;;;11.34;96.78
4273;BME280;63887;53.656;9.810;2022-10-31T00:49:00;101964.06;;;11.34;97.41
4273;BME280;63887;53.656;9.810;2022-10-31T00:51:26;101956.13;;;11.36;96.85
4273;BME280;63887;53.656;9.810;2022-10-31T00:53:52;101966.63;;;11.36;97.24
4273;BME280;63887;53.656;9.810;2022-10-31T00:56:19;101966.63;;;11.36;97.49
4273;BME280;63887;53.656;9.810;2022-10-31T00:58:47;101967.47;;;11.37;97.00
4273;BME280;63887;53.656;9.810;2022-10-31T01:01:13;101971.16;;;11.32;97.40
4273;BME280;63887;53.656;9.810;2022-10-31T01:03:39;101975.53;;;11.32;97.63
4273;BME280;63887;53.656;9.810;2022-10-31T01:06:08;101978.16;;;11.32;97.59
4273;BME280;63887;53.656;9.810;2022-10-31T01:08:35;101986.00;;;11.33;97.71
4273;BME280;63887;53.656;9.810;2022-10-31T01:11:05;101982.50;;;11.33;97.50
4273;BME280;63887;53.656;9.810;2022-10-31T01:13:33;102001.81;;;11.32;97.71
4273;BME280;63887;53.656;9.810;2022-10-31T01:16:01;101990.38;;;11.33;97.31
4273;BME280;63887;53.656;9.810;2022-10-31T01:18:28;102002.81;;;11.28;97.35
4273;BME280;63887;53.656;9.810;2022-10-31T01:21:00;101995.13;;;11.23;97.72
4273;BME280;63887;53.656;9.810;2022-10-31T01:23:27;102002.03;;;11.26;97.61
4273;BME280;63887;53.656;9.810;2022-10-31T01:26:04;102004.53;;;11.29;97.37
4273;BME280;63887;53.656;9.810;2022-10-31T01:28:32;102002.81;;;11.28;97.47
4273;BME280;63887;53.656;9.810;2022-10-31T01:31:04;102002.81;;;11.28;97.22
4273;BME280;63887;53.656;9.810;2022-10-31T01:33:31;102010.69;;;11.28;97.32
4273;BME280;63887;53.656;9.810;2022-10-31T01:35:58;102002.03;;;11.26;97.31
4273;BME280;63887;53.656;9.810;2022-10-31T01:38:25;102006.34;;;11.27;97.53
4273;BME280;63887;53.656;9.810;2022-10-31T01:40:52;102010.59;;;11.31;97.47
4273;BME280;63887;53.656;9.810;2022-10-31T01:43:19;102016.75;;;11.30;97.65
4273;BME280;63887;53.656;9.810;2022-10-31T01:45:50;102021.25;;;11.26;97.85
4273;BME280;63887;53.656;9.810;2022-10-31T01:48:20;102018.69;;;11.25;97.39
4273;BME280;63887;53.656;9.810;2022-10-31T01:50:52;102033.41;;;11.29;98.01
4273;BME280;63887;53.656;9.810;2022-10-31T01:53:20;102023.50;;;11.37;97.91
4273;BME280;63887;53.656;9.810;2022-10-31T01:55:47;102015.56;;;11.60;98.46
4273;BME280;63887;53.656;9.810;2022-10-31T01:58:19;102021.13;;;11.75;98.95
4273;BME280;63887;53.656;9.810;2022-10-31T02:00:50;102027.97;;;11.80;99.11
4273;BME280;63887;53.656;9.810;2022-10-31T02:03:20;102021.47;;;11.89;99.29
4273;BME280;63887;53.656;9.810;2022-10-31T02:05:47;102024.53;;;12.00;98.99
4273;BME280;63887;53.656;9.810;2022-10-31T02:08:16;102021.78;;;12.03;99.16
4273;BME280;63887;53.656;9.810;2022-10-31T02:10:44;102020.00;;;12.04;98.95
4273;BME280;63887;53.656;9.810;2022-10-31T02:13:11;102028.72;;;12.06;99.12
4273;BME280;63887;53.656;9.810;2022-10-31T02:15:40;102034.78;;;12.08;99.22
4273;BME280;63887;53.656;9.810;2022-10-31T02:18:09;102038.72;;;12.18;99.18
4273;BME280;63887;53.656;9.810;2022-10-31T02:20:44;102043.88;;;12.21;99.49
4273;BME280;63887;53.656;9.810;2022-10-31T02:23:35;102035.78;;;12.26;99.36
4273;BME280;63887;53.656;9.810;2022-10-31T02:26:22;102039.84;;;12.33;99.56
4273;BME280;63887;53.656;9.810;2022-10-31T02:29:41;102040.91;;;12.29;99.43
4273;BME280;63887;53.656;9.810;2022-10-31T02:32:19;102049.53;;;12.32;99.08
4273;BME280;63887;53.656;9.810;2022-10-31T02:34:52;102050.44;;;12.31;99.31
4273;BME280;63887;53.656;9.810;2022-10-31T02:37:25;102056.69;;;12.29;99.22
4273;BME280;63887;53.656;9.810;2022-10-31T02:39:56;102047.81;;;12.31;99.16
4273;BME280;63887;53.656;9.810;2022-10-31T02:42:33;102052.16;;;12.32;99.46
4273;BME280;63887;53.656;9.810;2022-10-31T02:45:06;102054.63;;;12.37;99.19
4273;BME280;63887;53.656;9.810;2022-10-31T02:47:37;102052.84;;;12.37;99.37
4273;BME280;63887;53.656;9.810;2022-10-31T02:50:07;102049.44;;;12.35;99.25
4273;BME280;63887;53.656;9.810;2022-10-31T02:52:35;102052.06;;;12.35;99.39
4273;BME280;63887;53.656;9.810;2022-10-31T02:55:10;102059.94;;;12.35;99.17
4273;BME280;63887;53.656;9.810;2022-10-31T02:57:39;102059.97;;;12.34;99.54
4273;BME280;63887;53.656;9.810;2022-10-31T03:00:08;102058.28;;;12.33;99.45
4273;BME280;63887;53.656;9.810;2022-10-31T03:02:50;102057.41;;;12.32;99.45
4273;BME280;63887;53.656;9.810;2022-10-31T03:05:30;102066.31;;;12.30;99.27
4273;BME280;63887;53.656;9.810;2022-10-31T03:08:07;102062.94;;;12.26;99.35
4273;BME280;63887;53.656;9.810;2022-10-31T03:10:41;102073.47;;;12.26;99.41
4273;BME280;63887;53.656;9.810;2022-10-31T03:13:13;102070.84;;;12.26;99.40
4273;BME280;63887;53.656;9.810;2022-10-31T03:15:48;102071.63;;;12.28;99.49
4273;BME280;63887;53.656;9.810;2022-10-31T03:18:21;102073.34;;;12.29;99.68
4273;BME280;63887;53.656;9.810;2022-10-31T03:20:54;102070.72;;;12.29;99.25
4273;BME280;63887;53.656;9.810;2022-10-31T03:23:22;102082.22;;;12.27;99.47
4273;BME280;63887;53.656;9.810;2022-10-31T03:25:51;102094.72;;;12.21;99.63
4273;BME280;63887;53.656;9.810;2022-10-31T03:28:25;102087.03;;;12.15;99.24
4273;BME280;63887;53.656;9.810;2022-10-31T03:30:56;102091.50;;;12.13;99.36
4273;BME280;63887;53.656;9.810;2022-10-31T03:33:27;102092.56;;;12.09;99.68
4273;BME280;63887;53.656;9.810;2022-10-31T03:35:57;102090.09;;;12.05;99.42
4273;BME280;63887;53.656;9.810;2022-10-31T03:38:28;102100.69;;;12.03;99.58
4273;BME280;63887;53.656;9.810;2022-10-31T03:40:55;102094.50;;;12.04;99.44
4273;BME280;63887;53.656;9.810;2022-10-31T03:43:26;102105.16;;;12.01;99.51
4273;BME280;63887;53.656;9.810;2022-10-31T03:45:55;102104.28;;;12.01;99.43
4273;BME280;63887;53.656;9.810;2022-10-31T03:48:22;102115.72;;;12.00;99.43
4273;BME280;63887;53.656;9.810;2022-10-31T03:50:58;102120.25;;;11.96;99.54
4273;BME280;63887;53.656;9.810;2022-10-31T03:53:31;102125.63;;;11.93;99.69
4273;BME280;63887;53.656;9.810;2022-10-31T03:56:02;102119.53;;;11.92;99.86
4273;BME280;63887;53.656;9.810;2022-10-31T03:58:32;102126.56;;;11.92;99.69
4273;BME280;63887;53.656;9.810;2022-10-31T04:01:04;102123.88;;;11.93;99.51
4273;BME280;63887;53.656;9.810;2022-10-31T04:03:33;102131.13;;;11.87;99.43
4273;BME280;63887;53.656;9.810;2022-10-31T04:06:05;102129.28;;;11.89;99.46
4273;BME280;63887;53.656;9.810;2022-10-31T04:08:37;102127.56;;;11.88;99.62
4273;BME280;63887;53.656;9.810;2022-10-31T04:11:06;102136.22;;;11.91;99.69
4273;BME280;63887;53.656;9.810;2022-10-31T04:13:37;102135.44;;;11.88;99.76
4273;BME280;63887;53.656;9.810;2022-10-31T04:16:05;102129.41;;;11.86;99.70
4273;BME280;63887;53.656;9.810;2022-10-31T04:18:32;102132.09;;;11.84;99.74
4273;BME280;63887;53.656;9.810;2022-10-31T04:21:02;102130.44;;;11.82;99.66
4273;BME280;63887;53.656;9.810;2022-10-31T04:23:29;102135.75;;;11.80;99.60
4273;BME280;63887;53.656;9.810;2022-10-31T04:25:55;102130.50;;;11.80;99.66
4273;BME280;63887;53.656;9.810;2022-10-31T04:28:22;102140.09;;;11.81;99.53
4273;BME280;63887;53.656;9.810;2022-10-31T04:30:49;102139.25;;;11.81;99.50
4273;BME280;63887;53.656;9.810;2022-10-31T04:33:15;102136.56;;;11.82;99.64
4273;BME280;63887;53.656;9.810;2022-10-31T04:35:42;102138.84;;;11.91;99.79
4273;BME280;63887;53.656;9.810;2022-10-31T04:38:10;102147.53;;;11.93;99.92
4273;BME280;63887;53.656;9.810;2022-10-31T04:40:36;102147.53;;;11.93;99.68
4273;BME280;63887;53.656;9.810;2022-10-31T04:43:03;102152.47;;;12.01;99.70
4273;BME280;63887;53.656;9.810;2022-10-31T04:45:29;102163.84;;;12.02;99.70
4273;BME280;63887;53.656;9.810;2022-10-31T04:47:56;102160.16;;;12.07;99.78
4273;BME280;63887;53.656;9.810;2022-10-31T04:50:22;102153.13;;;12.08;99.90
4273;BME280;63887;53.656;9.810;2022-10-31T04:52:49;102160.09;;;12.09;99.86
4273;BME280;63887;53.656;9.810;2022-10-31T04:55:16;102156.47;;;12.11;99.74
4273;BME280;63887;53.656;9.810;2022-10-31T04:57:44;102158.06;;;12.15;99.77
4273;BME280;63887;53.656;9.810;2022-10-31T05:00:13;102161.56;;;12.16;99.55
4273;BME280;63887;53.656;9.810;2022-10-31T05:02:44;102160.81;;;12.12;99.84
4273;BME280;63887;53.656;9.810;2022-10-31T05:05:10;102163.38;;;12.14;99.85
4273;BME280;63887;53.656;9.810;2022-10-31T05:07:38;102155.44;;;12.15;99.74
4273;BME280;63887;53.656;9.810;2022-10-31T05:10:06;102162.47;;;12.15;99.86
4273;BME280;63887;53.656;9.810;2022-10-31T05:12:34;102163.13;;;12.20;99.95
4273;BME280;63887;53.656;9.810;2022-10-31T05:15:00;102162.19;;;12.22;99.92
4273;BME280;63887;53.656;9.810;2022-10-31T05:17:26;102156.13;;;12.20;99.77
4273;BME280;63887;53.656;9.810;2022-10-31T05:19:53;102144.56;;;12.24;99.69
4273;BME280;63887;53.656;9.810;2022-10-31T05:22:19;102150.56;;;12.28;99.82
4273;BME280;63887;53.656;9.810;2022-10-31T05:24:46;102154.22;;;12.24;99.73
4273;BME280;63887;53.656;9.810;2022-10-31T05:27:12;102152.47;;;12.24;99.72
4273;BME280;63887;53.656;9.810;2022-10-31T05:29:40;102144.63;;;12.23;99.30
4273;BME280;63887;53.656;9.810;2022-10-31T05:32:06;102156.72;;;12.27;99.82
4273;BME280;63887;53.656;9.810;2022-10-31T05:34:33;102148.72;;;12.30;99.52
4273;BME280;63887;53.656;9.810;2022-10-31T05:36:59;102150.56;;;12.28;99.82
4273;BME280;63887;53.656;9.810;2022-10-31T05:39:25;102153.25;;;12.27;99.66
4273;BME280;63887;53.656;9.810;2022-10-31T05:41:52;102148.13;;;12.23;99.88
4273;BME280;63887;53.656;9.810;2022-10-31T05:44:18;102152.47;;;12.24;99.77
4273;BME280;63887;53.656;9.810;2022-10-31T05:46:47;102155.09;;;12.24;99.65
4273;BME280;63887;53.656;9.810;2022-10-31T05:49:13;102162.97;;;12.24;99.69
4273;BME280;63887;53.656;9.810;2022-10-31T05:51:40;102161.13;;;12.27;99.83
4273;BME280;63887;53.656;9.810;2022-10-31T05:54:06;102162.97;;;12.24;100.00
4273;BME280;63887;53.656;9.810;2022-10-31T05:56:32;102158.69;;;12.22;100.00
4273;BME280;63887;53.656;9.810;2022-10-31T05:58:59;102158.50;;;12.27;100.00
4273;BME280;63887;53.656;9.810;2022-10-31T06:01:25;102166.41;;;12.27;100.00
4273;BME280;63887;53.656;9.810;2022-10-31T06:03:53;102168.06;;;12.29;100.00
4273;BME280;63887;53.656;9.810;2022-10-31T06:06:19;102162.00;;;12.27;99.66
4273;BME280;63887;53.656;9.810;2022-10-31T06:08:46;102172.59;;;12.26;99.98
4273;BME280;63887;53.656;9.810;2022-10-31T06:11:12;102178.75;;;12.24;99.92
4273;BME280;63887;53.656;9.810;2022-10-31T06:13:39;102181.41;;;12.24;99.57
4273;BME280;63887;53.656;9.810;2022-10-31T06:16:05;102195.41;;;12.25;99.81
4273;BME280;63887;53.656;9.810;2022-10-31T06:18:32;102181.19;;;12.29;99.73
4273;BME280;63887;53.656;9.810;2022-10-31T06:21:00;102174.28;;;12.27;99.64
4273;BME280;63887;53.656;9.810;2022-10-31T06:23:26;102171.59;;;12.28;99.66
4273;BME280;63887;53.656;9.810;2022-10-31T06:25:52;102174.09;;;12.31;99.66
4273;BME280;63887;53.656;9.810;2022-10-31T06:28:20;102179.56;;;12.27;99.60
4273;BME280;63887;53.656;9.810;2022-10-31T06:30:46;102176.19;;;12.23;99.65
4273;BME280;63887;53.656;9.810;2022-10-31T06:33:13;102177.22;;;12.19;99.82
4273;BME280;63887;53.656;9.810;2022-10-31T06:35:45;102184.81;;;12.27;99.45
4273;BME280;63887;53.656;9.810;2022-10-31T06:38:13;102190.13;;;12.25;99.61
4273;BME280;63887;53.656;9.810;2022-10-31T06:40:39;102188.38;;;12.26;99.64
4273;BME280;63887;53.656;9.810;2022-10-31T06:43:06;102190.94;;;12.27;99.86
4273;BME280;63887;53.656;9.810;2022-10-31T06:45:32;102197.13;;;12.26;99.61
4273;BME280;63887;53.656;9.810;2022-10-31T06:47:58;102194.41;;;12.28;99.83
4273;BME280;63887;53.656;9.810;2022-10-31T06:50:25;102205.94;;;12.25;99.53
4273;BME280;63887;53.656;9.810;2022-10-31T06:52:52;102211.19;;;12.25;99.30
4273;BME280;63887;53.656;9.810;2022-10-31T06:55:20;102217.25;;;12.27;99.67
4273;BME280;63887;53.656;9.810;2022-10-31T06:57:50;102216.84;;;12.38;99.41
4273;BME280;63887;53.656;9.810;2022-10-31T07:00:17;102229.34;;;12.31;99.10
4273;BME280;63887;53.656;9.810;2022-10-31T07:02:44;102222.44;;;12.29;99.17
4273;BME280;63887;53.656;9.810;2022-10-31T07:05:18;102220.13;;;12.21;99.23
4273;BME280;63887;53.656;9.810;2022-10-31T07:07:44;102230.53;;;12.24;98.94
4273;BME280;63887;53.656;9.810;2022-10-31T07:10:11;102235.06;;;12.19;99.27
4273;BME280;63887;53.656;9.810;2022-10-31T07:12:38;102239.94;;;12.30;98.99
4273;BME280;63887;53.656;9.810;2022-10-31T07:15:07;102237.56;;;12.23;98.36
4273;BME280;63887;53.656;9.810;2022-10-31T07:17:33;102244.75;;;12.18;98.70
4273;BME280;63887;53.656;9.810;2022-10-31T07:19:59;102246.56;;;12.16;98.89
4273;BME280;63887;53.656;9.810;2022-10-31T07:22:32;102248.13;;;12.22;99.17
4273;BME280;63887;53.656;9.810;2022-10-31T07:24:58;102252.69;;;12.17;99.03
4273;BME280;63887;53.656;9.810;2022-10-31T07:27:25;102249.94;;;12.20;99.08
4273;BME280;63887;53.656;9.810;2022-10-31T07:29:52;102252.63;;;12.18;99.27
4273;BME280;63887;53.656;9.810;2022-10-31T07:32:19;102250.13;;;12.15;98.93
4273;BME280;63887;53.656;9.810;2022-10-31T07:34:45;102248.34;;;12.16;98.79
4273;BME280;63887;53.656;9.810;2022-10-31T07:37:12;102249.44;;;12.10;98.81
4273;BME280;63887;53.656;9.810;2022-10-31T07:39:38;102255.63;;;12.09;98.65
4273;BME280;63887;53.656;9.810;2022-10-31T07:42:04;102257.59;;;12.03;98.87
4273;BME280;63887;53.656;9.810;2022-10-31T07:44:31;102252.34;;;12.03;98.99
4273;BME280;63887;53.656;9.810;2022-10-31T07:46:59;102255.78;;;12.05;98.83
4273;BME280;63887;53.656;9.810;2022-10-31T07:49:25;102258.41;;;12.05;98.77
4273;BME280;63887;53.656;9.810;2022-10-31T07:51:51;102261.00;;;12.06;99.10
4273;BME280;63887;53.656;9.810;2022-10-31T07:54:18;102259.97;;;12.10;98.87
4273;BME280;63887;53.656;9.810;2022-10-31T07:56:44;102270.66;;;12.06;98.75
4273;BME280;63887;53.656;9.810;2022-10-31T07:59:12;102273.44;;;12.01;99.07
4273;BME280;63887;53.656;9.810;2022-10-31T08:01:38;102274.38;;;12.00;98.72
4273;BME280;63887;53.656;9.810;2022-10-31T08:04:06;102267.22;;;12.04;98.95
4273;BME280;63887;53.656;9.810;2022-10-31T08:06:33;102273.44;;;12.01;98.90
4273;BME280;63887;53.656;9.810;2022-10-31T08:09:00;102270.03;;;11.99;98.71
4273;BME280;63887;53.656;9.810;2022-10-31T08:11:26;102264.69;;;12.01;98.94
4273;BME280;63887;53.656;9.810;2022-10-31T08:13:53;102265.69;;;11.98;98.92
4273;BME280;63887;53.656;9.810;2022-10-31T08:16:19;102273.28;;;12.29;98.50
4273;BME280;63887;53.656;9.810;2022-10-31T08:18:46;102271.38;;;12.33;98.39
4273;BME280;63887;53.656;9.810;2022-10-31T08:21:14;102268.59;;;12.37;98.34
4273;BME280;63887;53.656;9.810;2022-10-31T08:23:40;102277.34;;;12.38;98.53
4273;BME280;63887;53.656;9.810;2022-10-31T08:26:07;102274.13;;;12.30;98.32
4273;BME280;63887;53.656;9.810;2022-10-31T08:28:33;102266.06;;;12.34;98.53
4273;BME280;63887;53.656;9.810;2022-10-31T08:30:59;102262.88;;;12.26;97.74
4273;BME280;63887;53.656;9.810;2022-10-31T08:33:26;102270.78;;;12.26;98.12
4273;BME280;63887;53.656;9.810;2022-10-31T08:35:52;102262.09;;;12.24;98.35
4273;BME280;63887;53.656;9.810;2022-10-31T08:38:20;102265.84;;;12.40;98.36
4273;BME280;63887;53.656;9.810;2022-10-31T08:40:48;102264.94;;;12.41;97.83
4273;BME280;63887;53.656;9.810;2022-10-31T08:43:16;102269.09;;;12.47;97.82
4273;BME280;63887;53.656;9.810;2022-10-31T08:45:43;102262.91;;;12.48;97.86
4273;BME280;63887;53.656;9.810;2022-10-31T08:48:12;102260.28;;;12.48;97.95
4273;BME280;63887;53.656;9.810;2022-10-31T08:50:38;102255.25;;;12.65;97.75
4273;BME280;63887;53.656;9.810;2022-10-31T08:53:07;102268.63;;;12.59;97.09
4273;BME280;63887;53.656;9.810;2022-10-31T08:55:35;102272.97;;;12.60;97.42
4273;BME280;63887;53.656;9.810;2022-10-31T08:58:04;102278.00;;;12.66;97.84
4273;BME280;63887;53.656;9.810;2022-10-31T09:00:31;102282.28;;;12.69;97.69
4273;BME280;63887;53.656;9.810;2022-10-31T09:02:57;102281.38;;;12.70;97.18
4273;BME280;63887;53.656;9.810;2022-10-31T09:05:25;102272.88;;;12.85;96.99
4273;BME280;63887;53.656;9.810;2022-10-31T09:07:55;102267.50;;;13.08;96.48
4273;BME280;63887;53.656;9.810;2022-10-31T09:10:22;102262.78;;;13.17;96.37
4273;BME280;63887;53.656;9.810;2022-10-31T09:12:55;102258.81;;;13.06;95.67
4273;BME280;63887;53.656;9.810;2022-10-31T09:15:22;102254.97;;;13.15;96.02
4273;BME280;63887;53.656;9.810;2022-10-31T09:17:49;102253.44;;;13.09;95.33
4273;BME280;63887;53.656;9.810;2022-10-31T09:20:15;102244.66;;;13.31;94.31
4273;BME280;63887;53.656;9.810;2022-10-31T09:22:42;102242.28;;;13.25;94.40
4273;BME280;63887;53.656;9.810;2022-10-31T09:25:08;102243.75;;;13.32;94.80
4273;BME280;63887;53.656;9.810;2022-10-31T09:27:35;102237.81;;;13.05;94.90
4273;BME280;63887;53.656;9.810;2022-10-31T09:30:03;102240.78;;;13.18;95.00
4273;BME280;63887;53.656;9.810;2022-10-31T09:32:29;102242.94;;;13.30;94.92
4273;BME280;63887;53.656;9.810;2022-10-31T09:34:56;102251.16;;;13.22;94.82
4273;BME280;63887;53.656;9.810;2022-10-31T09:37:22;102254.53;;;13.26;95.16
4273;BME280;63887;53.656;9.810;2022-10-31T09:39:49;102248.41;;;13.46;94.78
4273;BME280;63887;53.656;9.810;2022-10-31T09:42:45;102248.16;;;13.52;94.36
4273;BME280;63887;53.656;9.810;2022-10-31T09:45:22;102256.91;;;13.52;93.66
4273;BME280;63887;53.656;9.810;2022-10-31T09:48:02;102266.09;;;13.43;94.53
4273;BME280;63887;53.656;9.810;2022-10-31T09:50:38;102273.19;;;13.62;94.23
4273;BME280;63887;53.656;9.810;2022-10-31T09:53:10;102279.13;;;13.67;94.37
4273;BME280;63887;53.656;9.810;2022-10-31T09:55:41;102279.78;;;13.72;94.19
4273;BME280;63887;53.656;9.810;2022-10-31T09:58:14;102283.06;;;13.77;93.63
4273;BME280;63887;53.656;9.810;2022-10-31T10:00:43;102278.72;;;13.76;93.33
4273;BME280;63887;53.656;9.810;2022-10-31T10:03:15;102283.47;;;13.68;93.79
4273;BME280;63887;53.656;9.810;2022-10-31T10:05:59;102274.75;;;13.66;94.10
4273;BME280;63887;53.656;9.810;2022-10-31T10:08:33;102280.38;;;13.58;94.33
4273;BME280;63887;53.656;9.810;2022-10-31T10:11:12;102269.03;;;13.77;93.03
4273;BME280;63887;53.656;9.810;2022-10-31T10:13:53;102279.66;;;13.75;93.38
4273;BME280;63887;53.656;9.810;2022-10-31T10:16:35;102275.03;;;13.80;92.94
4273;BME280;63887;53.656;9.810;2022-10-31T10:19:14;102276.66;;;13.83;92.61
4273;BME280;63887;53.656;9.810;2022-10-31T10:21:49;102279.88;;;13.70;92.75
4273;BME280;63887;53.656;9.810;2022-10-31T10:24:43;102279.94;;;13.69;92.88
4273;BME280;63887;53.656;9.810;2022-10-31T10:27:21;102279.47;;;13.59;92.84
4273;BME280;63887;53.656;9.810;2022-10-31T10:29:54;102277.75;;;13.58;93.50
4273;BME280;63887;53.656;9.810;2022-10-31T10:32:28;102279.47;;;13.59;93.40
4273;BME280;63887;53.656;9.810;2022-10-31T10:34:58;102281.03;;;13.63;93.36
4273;BME280;63887;53.656;9.810;2022-10-31T10:37:30;102274.75;;;13.66;93.05
4273;BME280;63887;53.656;9.810;2022-10-31T10:40:06;102277.28;;;13.69;92.87
4273;BME280;63887;53.656;9.810;2022-10-31T10:42:34;102266.75;;;13.69;93.40
4273;BME280;63887;53.656;9.810;2022-10-31T10:45:19;102263.75;;;13.77;92.86
4273;BME280;63887;53.656;9.810;2022-10-31T10:48:14;102255.91;;;13.75;93.32
4273;BME280;63887;53.656;9.810;2022-10-31T10:50:44;102253.22;;;13.77;92.95
4273;BME280;63887;53.656;9.810;2022-10-31T10:53:35;102247.97;;;13.95;91.26
4273;BME280;63887;53.656;9.810;2022-10-31T10:56:17;102256.34;;;14.24;89.06
4273;BME280;63887;53.656;9.810;2022-10-31T10:58:47;102247.81;;;13.98;89.74
4273;BME280;63887;53.656;9.810;2022-10-31T11:01:15;102238.84;;;13.84;91.17
4273;BME280;63887;53.656;9.810;2022-10-31T11:03:42;102231.81;;;13.83;92.27
4273;BME280;63887;53.656;9.810;2022-10-31T11:06:19;102239.31;;;13.73;92.24
4273;BME280;63887;53.656;9.810;2022-10-31T11:08:51;102242.59;;;13.78;92.28
4273;BME280;63887;53.656;9.810;2022-10-31T11:11:24;102244.44;;;13.76;92.15
4273;BME280;63887;53.656;9.810;2022-10-31T11:13:57;102239.81;;;13.81;92.16
4273;BME280;63887;53.656;9.810;2022-10-31T11:16:30;102244.63;;;13.92;91.26
4273;BME280;63887;53.656;9.810;2022-10-31T11:19:07;102243.06;;;13.88;91.14
4273;BME280;63887;53.656;9.810;2022-10-31T11:21:34;102246.00;;;14.00;90.58
4273;BME280;63887;53.656;9.810;2022-10-31T11:24:07;102240.84;;;13.97;90.60
4273;BME280;63887;53.656;9.810;2022-10-31T11:26:39;102239.19;;;13.95;90.29
4273;BME280;63887;53.656;9.810;2022-10-31T11:29:13;102234.00;;;13.93;90.65
4273;BME280;63887;53.656;9.810;2022-10-31T11:31:40;102238.69;;;13.87;90.55
4273;BME280;63887;53.656;9.810;2022-10-31T11:34:15;102227.38;;;13.85;91.17
4273;BME280;63887;53.656;9.810;2022-10-31T11:36:43;102228.16;;;13.87;91.25
4273;BME280;63887;53.656;9.810;2022-10-31T11:39:16;102227.16;;;13.89;90.46
4273;BME280;63887;53.656;9.810;2022-10-31T11:41:44;102223.03;;;14.02;90.28
4273;BME280;63887;53.656;9.810;2022-10-31T11:44:14;102223.03;;;14.02;89.63
4273;BME280;63887;53.656;9.810;2022-10-31T11:46:44;102222.59;;;14.12;89.51
4273;BME280;63887;53.656;9.810;2022-10-31T11:49:16;102231.28;;;13.95;90.03
4273;BME280;63887;53.656;9.810;2022-10-31T11:51:47;102232.88;;;13.99;90.41
4273;BME280;63887;53.656;9.810;2022-10-31T11:54:20;102227.66;;;13.97;90.19
4273;BME280;63887;53.656;9.810;2022-10-31T11:56:48;102226.81;;;14.16;89.53
4273;BME280;63887;53.656;9.810;2022-10-31T11:59:24;102226.22;;;14.09;90.16
4273;BME280;63887;53.656;9.810;2022-10-31T12:01:53;102217.91;;;14.18;89.28
4273;BME280;63887;53.656;9.810;2022-10-31T12:04:28;102212.41;;;14.23;88.57
4273;BME280;63887;53.656;9.810;2022-10-31T12:06:57;102211.47;;;14.24;88.96
4273;BME280;63887;53.656;9.810;2022-10-31T12:09:26;102209.53;;;14.27;88.84
4273;BME280;63887;53.656;9.810;2022-10-31T12:12:08;102213.91;;;14.28;87.30
4273;BME280;63887;53.656;9.810;2022-10-31T12:14:45;102208.34;;;14.16;87.99
4273;BME280;63887;53.656;9.810;2022-10-31T12:17:18;102209.53;;;14.09;88.21
4273;BME280;63887;53.656;9.810;2022-10-31T12:19:59;102207.13;;;14.23;87.96
4273;BME280;63887;53.656;9.810;2022-10-31T12:22:33;102198.09;;;14.47;86.26
4273;BME280;63887;53.656;9.810;2022-10-31T12:28:07;102202.44;;;14.48;85.71
4273;BME280;63887;53.656;9.810;2022-10-31T12:30:49;102199.25;;;14.40;85.32
4273;BME280;63887;53.656;9.810;2022-10-31T12:33:28;102195.22;;;14.52;85.38
4273;BME280;63887;53.656;9.810;2022-10-31T12:36:11;102189.38;;;14.45;86.29
4273;BME280;63887;53.656;9.810;2022-10-31T12:38:54;102197.56;;;14.39;86.51
4273;BME280;63887;53.656;9.810;2022-10-31T12:41:34;102192.88;;;14.46;86.67
4273;BME280;63887;53.656;9.810;2022-10-31T12:44:06;102192.06;;;14.63;85.68
4273;BME280;63887;53.656;9.810;2022-10-31T12:46:48;102188.34;;;14.67;85.23
4273;BME280;63887;53.656;9.810;2022-10-31T12:49:42;102191.13;;;14.64;84.80
4273;BME280;63887;53.656;9.810;2022-10-31T12:52:23;102188.34;;;14.67;84.68
4273;BME280;63887;53.656;9.810;2022-10-31T12:55:09;102190.16;;;14.47;84.87
4273;BME280;63887;53.656;9.810;2022-10-31T12:57:45;102177.75;;;14.49;84.60
4273;BME280;63887;53.656;9.810;2022-10-31T13:00:15;102182.72;;;14.55;84.19
4273;BME280;63887;53.656;9.810;2022-10-31T13:02:48;102184.56;;;14.53;84.74
4273;BME280;63887;53.656;9.810;2022-10-31T13:05:21;102171.84;;;14.44;85.00
4273;BME280;63887;53.656;9.810;2022-10-31T13:07:53;102176.34;;;14.41;86.06
4273;BME280;63887;53.656;9.810;2022-10-31T13:10:25;102175.41;;;14.42;86.65
4273;BME280;63887;53.656;9.810;2022-10-31T13:12:55;102181.63;;;14.41;86.88
4273;BME280;63887;53.656;9.810;2022-10-31T13:15:27;102184.03;;;14.47;87.42
4273;BME280;63887;53.656;9.810;2022-10-31T13:17:57;102181.63;;;14.41;87.45